Details for Austrian at LOWS




Go Back


Latest METAR
Local Time

LOWS 252150Z AUTO 14006KT 9999 FEW100 13/12 Q1020

26/05/2018, 00:23:17

Description
Results
Austrian Logo
Number of Pilots based at LOWS
0 Pilots Based here
Number of Austrian Flights Departed from LOWS
0 Flights Departed
Number of Austrian Flights Arrived at LOWS
0 Flights Arrived
Number of Austrian Schedules Departing from LOWS
10 Schedules
Number of Austrian Schedules Arriving at LOWS
12 Schedules
Number of Austrian Schedules Departing from LOWS availible today
7 Schedules Today
Number of Austrian Schedules Arriving at LOWS availible today
7 Schedules Today
Average Landing Rate at LOWS
-254 fpm
Austrian Average Landing Rate at LOWS
0 fpm
Total Fuel Purchased at LOWS by Austrian
0.00 kgs / 0.00 lbs

Pilots Based at LOWS


Pilot ID
Pilot Name
Pilot Rank
No. of Flights
No. of Flying Hours
There are no pilots assigned to this hub!   Will you be the first?
Content